Time;durP1;ratioP1;P1;durP2;ratioP2;P2;SDS_P1;SDS_P2;PMS_P1;PMS_P2;Temp;Humidity;BMP_temperature;BMP_pressure;BME280_temperature;BME280_humidity;BME280_pressure;Samples;Min_cycle;Max_cycle;Signal;HPM_P1;HPM_P2
2022/06/13 00:00:56;;;;;;;20.23;10.25;;;;;;;20.18;100.00;100931.66;5096178;28;20039;-76
2022/06/13 00:03:43;;;;;;;25.02;12.07;;;;;;;20.19;100.00;100932.50;5093996;28;20016;-78
2022/06/13 00:06:28;;;;;;;20.90;11.32;;;;;;;20.12;100.00;100925.78;5097543;28;20059;-77
2022/06/13 00:09:14;;;;;;;24.77;10.70;;;;;;;20.18;100.00;100929.00;5100186;28;20031;-77
2022/06/13 00:12:00;;;;;;;20.25;10.10;;;;;;;20.17;100.00;100918.44;5100831;28;20070;-77
2022/06/13 00:14:46;;;;;;;15.23;10.18;;;;;;;19.99;100.00;100916.69;5096263;28;20036;-77
2022/06/13 00:17:32;;;;;;;25.35;10.73;;;;;;;20.06;100.00;100916.31;5105854;28;20028;-77
2022/06/13 00:20:18;;;;;;;19.13;10.52;;;;;;;20.09;100.00;100924.13;5103423;28;20365;-77
2022/06/13 00:23:04;;;;;;;17.83;11.18;;;;;;;20.15;100.00;100925.63;5104498;28;20023;-78
2022/06/13 00:25:49;;;;;;;19.08;11.00;;;;;;;20.24;100.00;100914.47;5100351;28;20020;-77
2022/06/13 00:28:35;;;;;;;20.52;11.25;;;;;;;20.08;100.00;100916.19;5102016;28;20341;-77
2022/06/13 00:31:22;;;;;;;17.15;10.93;;;;;;;20.08;100.00;100914.41;5098493;28;20020;-77
2022/06/13 00:34:08;;;;;;;23.15;11.13;;;;;;;20.07;100.00;100920.69;5099427;28;20028;-77
2022/06/13 00:36:54;;;;;;;20.20;11.95;;;;;;;20.12;100.00;100923.13;5099793;28;20509;-77
2022/06/13 00:39:40;;;;;;;19.25;11.23;;;;;;;20.20;100.00;100913.78;5094599;28;20061;-77
2022/06/13 00:42:26;;;;;;;16.90;11.43;;;;;;;20.25;100.00;100922.38;5096731;28;20039;-77
2022/06/13 00:45:22;;;;;;;17.85;11.10;;;;;;;20.08;100.00;100927.72;5095283;28;20168;-77
2022/06/13 00:48:11;;;;;;;17.58;11.32;;;;;;;20.02;100.00;100925.41;5098388;28;20410;-77
2022/06/13 00:51:00;;;;;;;20.25;11.20;;;;;;;20.05;100.00;100922.53;5084115;28;20085;-78
2022/06/13 00:53:46;;;;;;;19.42;11.60;;;;;;;20.20;100.00;100924.44;5099843;28;20545;-77
2022/06/13 00:56:35;;;;;;;17.92;11.50;;;;;;;20.16;100.00;100920.22;5094341;28;20477;-77
2022/06/13 00:59:24;;;;;;;19.95;11.63;;;;;;;20.04;100.00;100918.19;5096256;28;20039;-77
2022/06/13 01:02:10;;;;;;;17.50;11.60;;;;;;;20.14;100.00;100932.75;5082804;28;20028;-76
2022/06/13 01:04:58;;;;;;;18.10;11.75;;;;;;;20.17;100.00;100926.41;5096327;28;20077;-77
2022/06/13 01:07:45;;;;;;;25.67;12.43;;;;;;;20.10;100.00;100925.88;5080906;28;20024;-77
2022/06/13 01:14:15;;;;;;;22.15;11.73;;;;;;;19.98;100.00;100925.63;5094577;28;20099;-76
2022/06/13 01:17:26;;;;;;;19.77;12.45;;;;;;;19.89;100.00;100926.13;5067901;28;20059;-76
2022/06/13 01:20:35;;;;;;;22.77;13.15;;;;;;;19.95;100.00;100929.31;5094141;28;20423;-77
2022/06/13 01:23:49;;;;;;;22.58;13.18;;;;;;;19.69;100.00;100931.59;5060578;28;20449;-77
2022/06/13 01:26:52;;;;;;;23.02;12.60;;;;;;;19.56;100.00;100923.38;5094338;28;20376;-76
2022/06/13 01:30:22;;;;;;;20.70;13.23;;;;;;;19.76;100.00;100931.19;5081132;28;20028;-76
2022/06/13 01:33:19;;;;;;;16.27;12.55;;;;;;;19.80;100.00;100929.25;5089624;28;20464;-77
2022/06/13 01:36:26;;;;;;;23.08;13.38;;;;;;;19.80;100.00;100923.94;5095025;28;20028;-77
2022/06/13 01:39:42;;;;;;;20.65;12.38;;;;;;;19.84;100.00;100925.50;5093457;28;20103;-77
2022/06/13 01:42:28;;;;;;;25.05;12.40;;;;;;;19.92;100.00;100924.16;5094726;28;20044;-77
2022/06/13 01:45:39;;;;;;;18.30;12.95;;;;;;;19.87;100.00;100928.84;5093708;28;20035;-77
2022/06/13 01:48:56;;;;;;;22.80;13.30;;;;;;;19.82;100.00;100919.38;5092108;28;20032;-77
2022/06/13 01:51:55;;;;;;;21.88;13.43;;;;;;;19.85;100.00;100927.22;5093025;28;20039;-77
2022/06/13 01:54:52;;;;;;;24.08;11.90;;;;;;;19.84;100.00;100929.00;5095800;28;20035;-77
2022/06/13 01:58:04;;;;;;;20.63;12.75;;;;;;;19.99;100.00;100924.69;5093388;28;20039;-76
2022/06/13 02:01:12;;;;;;;23.48;13.35;;;;;;;20.03;100.00;100932.44;5060963;28;20024;-77
2022/06/13 02:04:05;;;;;;;20.85;12.45;;;;;;;20.00;100.00;100932.59;5094994;28;20032;-77
2022/06/13 02:07:03;;;;;;;21.90;12.23;;;;;;;19.90;100.00;100934.00;5079446;28;20471;-77
2022/06/13 02:10:15;;;;;;;16.13;12.38;;;;;;;19.86;100.00;100934.25;5093806;28;20031;-77
2022/06/13 02:13:10;;;;;;;17.73;12.05;;;;;;;19.89;100.00;100936.75;5094046;28;20032;-76
2022/06/13 02:16:00;;;;;;;25.00;13.15;;;;;;;20.22;100.00;100938.53;5094534;28;20048;-77
2022/06/13 02:19:07;;;;;;;19.55;12.20;;;;;;;19.94;100.00;100948.88;5080184;28;20075;-76
2022/06/13 02:21:59;;;;;;;24.48;12.13;;;;;;;20.10;100.00;100951.63;5093811;28;20023;-77
2022/06/13 02:24:54;;;;;;;22.35;12.25;;;;;;;19.77;100.00;100940.88;5092802;28;20440;-76
2022/06/13 02:27:44;;;;;;;30.23;12.60;;;;;;;20.03;100.00;100945.72;5095629;28;20055;-77
2022/06/13 02:30:39;;;;;;;21.80;13.00;;;;;;;19.93;100.00;100949.78;5084145;28;20512;-77
2022/06/13 02:33:31;;;;;;;22.08;13.98;;;;;;;19.83;100.00;100953.00;5097055;28;20051;-76
2022/06/13 02:36:40;;;;;;;20.73;13.30;;;;;;;20.10;100.00;100955.16;5097547;28;20106;-77
2022/06/13 02:39:35;;;;;;;21.13;12.18;;;;;;;19.95;100.00;100955.03;5095095;28;20394;-77
2022/06/13 02:42:26;;;;;;;20.27;12.30;;;;;;;20.03;100.00;100955.50;5098355;28;20024;-77
2022/06/13 02:45:19;;;;;;;18.85;11.52;;;;;;;20.09;100.00;100949.88;5098277;28;20089;-77
2022/06/13 02:48:46;;;;;;;19.30;11.48;;;;;;;20.35;100.00;100958.22;5098264;28;20451;-77
2022/06/13 02:51:50;;;;;;;20.30;11.75;;;;;;;20.11;100.00;100948.88;5098113;28;20213;-77
2022/06/13 02:54:41;;;;;;;18.77;11.63;;;;;;;20.01;100.00;100952.06;5098169;28;20032;-78
2022/06/13 02:57:54;;;;;;;22.77;12.75;;;;;;;20.20;100.00;100964.34;5082364;28;20337;-77
2022/06/13 03:00:42;;;;;;;17.30;11.48;;;;;;;19.85;100.00;100973.25;5096783;28;20032;-77
2022/06/13 03:03:37;;;;;;;22.58;12.52;;;;;;;19.69;100.00;100969.66;5096025;28;20031;-77
2022/06/13 03:06:26;;;;;;;25.00;13.05;;;;;;;20.23;100.00;100965.97;5096724;28;20066;-77
2022/06/13 03:09:17;;;;;;;20.50;12.43;;;;;;;20.23;100.00;100973.97;5097590;28;20093;-77
2022/06/13 03:12:16;;;;;;;20.63;13.32;;;;;;;20.17;100.00;100969.81;5081802;28;20061;-77
2022/06/13 03:16:02;;;;;;;20.15;13.68;;;;;;;20.35;100.00;100952.03;5082434;28;20142;-78
2022/06/13 03:18:53;;;;;;;18.98;12.25;;;;;;;19.81;100.00;100955.75;5091149;28;20534;-78
2022/06/13 03:22:25;;;;;;;20.23;12.32;;;;;;;19.59;100.00;100967.56;5096831;28;20070;-77
2022/06/13 03:25:13;;;;;;;21.77;12.75;;;;;;;19.87;100.00;100963.41;5088223;28;20028;-78
2022/06/13 03:28:09;;;;;;;20.85;12.75;;;;;;;20.02;100.00;100961.75;5096063;28;20031;-78
2022/06/13 03:31:04;;;;;;;22.45;13.02;;;;;;;20.20;100.00;100964.34;5096003;28;20372;-77
2022/06/13 03:33:56;;;;;;;20.52;13.00;;;;;;;19.72;100.00;100968.69;5082167;28;20036;-77
2022/06/13 03:36:47;;;;;;;22.85;13.23;;;;;;;19.96;100.00;100967.38;5082675;28;20111;-77
2022/06/13 03:39:59;;;;;;;22.65;12.80;;;;;;;19.81;100.00;100971.69;5094816;28;20038;-77
2022/06/13 03:42:59;;;;;;;21.10;13.60;;;;;;;19.93;100.00;100979.03;5096910;28;20020;-78
2022/06/13 03:46:01;;;;;;;19.58;13.07;;;;;;;20.28;100.00;100978.09;5096342;28;20123;-77
2022/06/13 03:48:57;;;;;;;22.45;13.02;;;;;;;19.96;100.00;100967.38;5081272;28;20035;-77
2022/06/13 03:51:48;;;;;;;20.63;12.18;;;;;;;20.24;100.00;100976.53;5095530;28;20027;-77
2022/06/13 03:54:43;;;;;;;20.67;12.57;;;;;;;20.30;100.00;100978.03;5080861;28;20024;-77
2022/06/13 03:57:57;;;;;;;19.48;13.20;;;;;;;20.22;100.00;100985.56;5081825;28;20042;-76
2022/06/13 04:00:49;;;;;;;18.27;12.40;;;;;;;20.22;100.00;100985.56;5096404;28;20097;-77
2022/06/13 04:03:36;;;;;;;20.83;13.00;;;;;;;20.13;100.00;100984.22;5095440;28;20028;-77
2022/06/13 04:06:39;;;;;;;20.17;12.00;;;;;;;20.07;100.00;100976.53;5097074;28;20020;-78
2022/06/13 04:09:30;;;;;;;23.17;13.00;;;;;;;20.33;100.00;100977.88;5095971;28;20032;-77
2022/06/13 04:12:42;;;;;;;22.10;12.23;;;;;;;20.14;100.00;100990.41;5096769;28;20085;-76
2022/06/13 04:16:05;;;;;;;20.60;12.30;;;;;;;20.28;100.00;100983.44;5081853;28;20117;-78
2022/06/13 04:19:07;;;;;;;17.55;11.40;;;;;;;20.48;100.00;100985.88;5081089;28;20048;-78
2022/06/13 04:22:11;;;;;;;19.67;11.35;;;;;;;20.68;100.00;100979.47;5081530;28;20514;-78
2022/06/13 04:25:30;;;;;;;15.02;10.93;;;;;;;20.61;100.00;100984.28;5095172;28;20036;-77
2022/06/13 04:28:33;;;;;;;17.02;11.60;;;;;;;20.86;100.00;100987.31;5096721;28;20056;-77
2022/06/13 04:31:20;;;;;;;19.90;11.07;;;;;;;20.77;100.00;100997.63;5082246;28;20475;-78
2022/06/13 04:34:20;;;;;;;18.27;11.35;;;;;;;20.63;100.00;100998.38;5080778;28;20039;-77
2022/06/13 04:37:06;;;;;;;17.48;10.73;;;;;;;21.01;100.00;101001.66;5096029;28;20024;-77
2022/06/13 04:39:58;;;;;;;15.82;10.95;;;;;;;20.63;100.00;101003.72;5095085;28;20043;-77
2022/06/13 04:42:47;;;;;;;21.00;11.85;;;;;;;20.81;100.00;101004.50;5079907;28;20023;-78
2022/06/13 04:45:49;;;;;;;18.55;11.57;;;;;;;20.81;100.00;101010.69;5080356;28;20020;-77
2022/06/13 04:48:38;;;;;;;17.73;11.30;;;;;;;21.12;100.00;101008.09;5085709;28;20045;-77
2022/06/13 04:51:31;;;;;;;20.02;12.30;;;;;;;21.22;100.00;100997.75;5096843;28;20115;-77
2022/06/13 04:54:30;;;;;;;17.83;12.00;;;;;;;21.23;100.00;101007.47;5096503;28;20052;-78
2022/06/13 04:57:17;;;;;;;19.88;11.38;;;;;;;21.38;100.00;101003.94;5081509;28;20027;-78
2022/06/13 05:00:10;;;;;;;24.27;14.30;;;;;;;21.54;100.00;101010.94;5081174;28;20101;-77
2022/06/13 05:02:57;;;;;;;17.38;12.18;;;;;;;21.52;100.00;101012.00;5080813;28;20039;-77
2022/06/13 05:05:46;;;;;;;19.63;11.85;;;;;;;21.71;100.00;101016.22;5094963;28;20059;-76
2022/06/13 05:08:36;;;;;;;15.15;11.95;;;;;;;21.68;100.00;101010.16;5095766;28;20035;-78
2022/06/13 05:11:45;;;;;;;15.52;11.43;;;;;;;21.95;100.00;101017.41;5096041;28;20034;-77
2022/06/13 05:14:41;;;;;;;18.95;12.05;;;;;;;21.95;100.00;101013.91;5094721;28;20048;-77
2022/06/13 05:17:45;;;;;;;17.55;12.10;;;;;;;21.97;100.00;101012.00;5095157;28;20529;-77
2022/06/13 05:20:43;;;;;;;19.33;13.07;;;;;;;21.81;100.00;101013.84;5080678;28;20410;-77
2022/06/13 05:23:39;;;;;;;20.98;14.02;;;;;;;21.80;100.00;101006.81;5094275;28;20019;-77
2022/06/13 05:26:29;;;;;;;20.42;13.10;;;;;;;21.83;100.00;101006.63;5093974;28;20032;-77
2022/06/13 05:29:14;;;;;;;24.52;14.13;;;;;;;21.82;100.00;101015.59;5093661;28;20035;-77
2022/06/13 05:32:02;;;;;;;20.98;14.07;;;;;;;21.54;100.00;101008.28;5094292;28;20050;-77
2022/06/13 05:34:49;;;;;;;18.30;13.18;;;;;;;21.98;100.00;101014.56;5094017;28;20119;-77
2022/06/13 05:37:35;;;;;;;20.67;12.70;;;;;;;22.06;100.00;101020.31;5094484;28;20028;-77
2022/06/13 05:40:22;;;;;;;20.55;13.18;;;;;;;21.76;100.00;101015.94;5065865;28;20031;-77
2022/06/13 05:43:12;;;;;;;21.45;13.23;;;;;;;22.02;100.00;101020.63;5094812;28;20062;-76
2022/06/13 05:45:59;;;;;;;19.52;13.52;;;;;;;22.10;100.00;101008.50;5095113;28;20041;-77
2022/06/13 05:48:44;;;;;;;16.38;12.52;;;;;;;22.17;100.00;101004.53;5095231;28;20038;-77
2022/06/13 05:51:30;;;;;;;21.48;13.45;;;;;;;22.06;100.00;100996.28;5081043;28;20020;-77
2022/06/13 05:54:16;;;;;;;19.52;13.13;;;;;;;21.80;100.00;101002.34;5094203;28;20051;-77
2022/06/13 05:57:03;;;;;;;19.63;14.07;;;;;;;22.13;100.00;100999.44;5080862;28;20111;-77
2022/06/13 05:59:48;;;;;;;15.70;12.45;;;;;;;22.54;100.00;100996.00;5094993;28;20028;-77
2022/06/13 06:02:34;;;;;;;20.70;14.05;;;;;;;22.73;100.00;100999.25;5095394;28;20064;-78
2022/06/13 06:05:20;;;;;;;20.20;12.73;;;;;;;23.06;100.00;101001.56;5098530;28;20060;-77
2022/06/13 06:08:15;;;;;;;21.17;13.40;;;;;;;22.72;100.00;100994.88;5098183;28;20471;-76
2022/06/13 06:11:01;;;;;;;21.27;13.15;;;;;;;23.09;100.00;101007.59;5097589;28;20067;-77
2022/06/13 06:13:47;;;;;;;16.42;12.35;;;;;;;22.73;100.00;100998.38;5097091;28;20027;-78
2022/06/13 06:16:33;;;;;;;17.67;13.25;;;;;;;22.69;100.00;101000.41;5083982;28;20052;-77
2022/06/13 06:19:19;;;;;;;16.05;12.30;;;;;;;23.02;100.00;100994.72;5097508;28;20089;-77
2022/06/13 06:22:05;;;;;;;14.18;12.48;;;;;;;23.25;100.00;100989.63;5083852;28;20024;-76
2022/06/13 06:24:50;;;;;;;17.25;12.55;;;;;;;23.60;100.00;100989.97;5097751;28;20020;-76
2022/06/13 06:27:37;;;;;;;16.48;11.95;;;;;;;23.23;100.00;100994.22;5097894;28;20363;-76
2022/06/13 06:30:23;;;;;;;15.10;12.43;;;;;;;23.00;100.00;100997.50;5096971;28;20036;-76
2022/06/13 06:33:09;;;;;;;17.15;12.73;;;;;;;23.50;100.00;100998.72;5098422;28;20089;-78
2022/06/13 06:35:55;;;;;;;19.17;13.98;;;;;;;23.56;100.00;100998.31;5097098;28;20338;-76
2022/06/13 06:38:41;;;;;;;15.25;13.02;;;;;;;23.26;100.00;100995.81;5098606;28;20089;-78
2022/06/13 06:41:27;;;;;;;24.60;15.98;;;;;;;23.32;100.00;100996.28;5097986;28;20032;-77
2022/06/13 06:44:13;;;;;;;17.33;13.98;;;;;;;23.39;100.00;100991.41;5096896;28;20030;-76
2022/06/13 06:46:59;;;;;;;19.00;14.50;;;;;;;23.47;100.00;100997.13;5097467;28;20368;-77
2022/06/13 06:49:47;;;;;;;20.40;15.00;;;;;;;23.47;100.00;100993.56;5083577;28;20364;-78
2022/06/13 06:52:33;;;;;;;19.58;14.93;;;;;;;23.58;100.00;100991.06;5082683;28;20105;-78
2022/06/13 07:01:32;;;;;;;23.80;15.90;;;;;;;23.32;100.00;100990.94;5097326;28;20024;-75
2022/06/13 07:04:18;;;;;;;23.52;15.15;;;;;;;23.66;100.00;100994.06;5098011;28;20467;-76
2022/06/13 07:07:04;;;;;;;23.33;16.67;;;;;;;23.25;100.00;100988.78;5096910;28;20024;-76
2022/06/13 07:09:50;;;;;;;22.45;16.48;;;;;;;23.56;100.00;100991.16;5096651;28;20051;-76
2022/06/13 07:12:36;;;;;;;21.27;16.73;;;;;;;23.60;100.00;100992.66;5097742;28;20039;-76
2022/06/13 07:15:21;;;;;;;21.42;18.23;;;;;;;23.37;100.00;100993.31;5094411;28;20052;-75
2022/06/13 07:18:08;;;;;;;23.85;17.40;;;;;;;23.40;100.00;100993.97;5098183;28;20093;-76
2022/06/13 07:20:54;;;;;;;21.42;18.27;;;;;;;23.39;100.00;100994.94;5097731;28;20024;-77
2022/06/13 07:23:40;;;;;;;27.85;19.35;;;;;;;23.90;100.00;100998.63;5096449;28;20032;-77
2022/06/13 07:26:26;;;;;;;21.95;18.00;;;;;;;24.40;100.00;101004.06;5096260;28;20099;-76
2022/06/13 07:29:12;;;;;;;22.15;18.15;;;;;;;24.48;100.00;101000.84;5095801;28;20067;-75
2022/06/13 07:32:16;;;;;;;23.65;18.13;;;;;;;24.77;100.00;100992.50;5095393;28;20049;-77
2022/06/13 07:35:02;;;;;;;21.33;17.95;;;;;;;24.20;100.00;100998.38;5097381;28;20456;-77
2022/06/13 07:40:59;;;;;;;20.73;15.93;;;;;;;24.26;100.00;100997.97;5096772;28;20085;-76
2022/06/13 07:43:45;;;;;;;20.40;17.05;;;;;;;24.07;100.00;100997.50;5097918;28;20020;-77
2022/06/13 07:46:32;;;;;;;21.50;17.30;;;;;;;24.37;100.00;100992.69;5096200;28;20035;-77
2022/06/13 07:49:19;;;;;;;19.23;15.93;;;;;;;24.98;100.00;100987.38;5081837;28;20127;-77
2022/06/13 07:52:05;;;;;;;21.17;16.30;;;;;;;24.88;100.00;100986.34;5097016;28;20028;-77
2022/06/13 07:54:51;;;;;;;20.70;15.07;;;;;;;24.98;100.00;101001.66;5097547;28;20039;-78
2022/06/13 07:57:37;;;;;;;16.52;14.27;;;;;;;25.35;100.00;100991.84;5082321;28;20028;-76
2022/06/13 08:00:26;;;;;;;17.70;13.93;;;;;;;25.97;100.00;100988.84;5081602;28;20032;-76
2022/06/13 08:03:32;;;;;;;15.40;13.55;;;;;;;25.42;100.00;100988.56;5081467;28;20028;-76
2022/06/13 08:06:18;;;;;;;17.40;14.45;;;;;;;25.68;100.00;100983.94;5083626;28;20035;-76
2022/06/13 08:09:05;;;;;;;15.70;13.80;;;;;;;25.70;100.00;100985.53;5082941;28;20036;-76
2022/06/13 08:11:51;;;;;;;16.52;13.48;;;;;;;25.89;100.00;100990.34;5097279;28;20347;-77
2022/06/13 08:14:37;;;;;;;16.10;13.40;;;;;;;25.90;100.00;100984.88;5081500;28;20044;-77
2022/06/13 08:17:23;;;;;;;22.30;13.05;;;;;;;26.05;100.00;100982.88;5095635;28;20363;-76
2022/06/13 08:20:09;;;;;;;13.40;12.00;;;;;;;26.21;100.00;100989.63;5096419;28;20173;-77
2022/06/13 08:22:58;;;;;;;14.20;11.88;;;;;;;25.99;100.00;100984.19;5081584;28;20028;-77
2022/06/13 08:25:44;;;;;;;14.35;12.85;;;;;;;26.36;100.00;100987.56;5097049;28;20032;-77
2022/06/13 08:28:30;;;;;;;19.05;11.65;;;;;;;26.58;100.00;100980.41;5081730;28;20460;-77
2022/06/13 08:31:20;;;;;;;16.95;11.30;;;;;;;26.09;100.00;100981.66;5097754;28;20403;-76
2022/06/13 08:34:05;;;;;;;13.63;10.55;;;;;;;26.88;100.00;100982.50;5095137;28;20460;-76
2022/06/13 08:36:53;;;;;;;15.65;10.68;;;;;;;26.52;100.00;100980.84;5096064;28;20024;-77
2022/06/13 08:39:39;;;;;;;12.27;9.98;;;;;;;26.51;100.00;100978.28;5094413;28;20483;-77
2022/06/13 08:42:33;;;;;;;22.80;11.35;;;;;;;26.85;100.00;100969.28;5095402;28;20039;-77
2022/06/13 08:45:30;;;;;;;14.45;10.32;;;;;;;27.18;100.00;100974.59;5082031;28;20537;-81
2022/06/13 08:48:39;;;;;;;16.00;11.13;;;;;;;27.41;100.00;100965.53;5096249;28;20032;-79
2022/06/13 08:51:51;;;;;;;12.75;10.07;;;;;;;27.57;100.00;100970.47;5081283;28;20039;-80
2022/06/13 08:54:37;;;;;;;14.48;11.38;;;;;;;27.23;100.00;100972.41;5081150;28;20032;-80
2022/06/13 08:57:27;;;;;;;17.13;11.05;;;;;;;27.64;100.00;100974.38;5081256;28;20178;-80
2022/06/13 09:00:20;;;;;;;13.85;11.43;;;;;;;27.08;100.00;100962.88;5095091;28;20032;-79
2022/06/13 09:03:17;;;;;;;14.48;11.10;;;;;;;26.88;100.00;100964.50;5080151;28;20048;-80
2022/06/13 09:06:18;;;;;;;11.32;10.10;;;;;;;27.74;100.00;100965.38;5094829;28;20020;-80
2022/06/13 09:09:14;;;;;;;12.40;10.02;;;;;;;27.49;100.00;100971.13;5095023;28;20055;-79
2022/06/13 09:12:08;;;;;;;14.20;10.48;;;;;;;28.13;100.00;100977.31;5080089;28;20027;-80
2022/06/13 09:14:54;;;;;;;11.75;10.25;;;;;;;28.26;100.00;100976.13;5095324;28;20040;-80
2022/06/13 09:18:06;;;;;;;11.35;9.80;;;;;;;28.31;100.00;100975.72;5094549;28;20064;-80
2022/06/13 09:21:01;;;;;;;10.57;9.20;;;;;;;28.24;100.00;100972.69;5081510;28;20024;-78
2022/06/13 09:23:50;;;;;;;18.77;11.35;;;;;;;28.32;100.00;100975.59;5095501;28;20020;-78
2022/06/13 09:26:46;;;;;;;10.23;9.18;;;;;;;28.48;100.00;100973.28;5094652;28;20020;-78
2022/06/13 09:29:48;;;;;;;12.00;8.57;;;;;;;28.47;100.00;100966.19;5095074;28;20035;-74
2022/06/13 09:32:37;;;;;;;10.93;9.00;;;;;;;28.40;100.00;100962.28;5094398;28;20464;-75
2022/06/13 09:35:27;;;;;;;12.35;8.52;;;;;;;28.76;100.00;100967.16;5094227;28;20034;-74
2022/06/13 09:38:34;;;;;;;14.50;8.25;;;;;;;28.81;100.00;100966.78;5094126;28;20059;-73
2022/06/13 09:41:40;;;;;;;9.52;7.97;;;;;;;27.60;100.00;100962.16;5095480;28;20078;-74
2022/06/13 09:44:44;;;;;;;13.10;8.85;;;;;;;28.30;100.00;100955.13;5094211;28;20052;-74
2022/06/13 09:47:56;;;;;;;12.50;8.75;;;;;;;28.14;100.00;100961.03;5094650;28;20100;-75
2022/06/13 09:50:55;;;;;;;11.85;8.52;;;;;;;28.83;100.00;100946.75;5079951;28;20074;-74
2022/06/13 09:53:47;;;;;;;14.95;8.30;;;;;;;29.06;100.00;100947.41;5094886;28;20468;-74
2022/06/13 09:57:09;;;;;;;9.20;8.05;;;;;;;29.08;100.00;100943.59;5080256;28;20032;-74
2022/06/13 10:00:18;;;;;;;15.90;8.20;;;;;;;28.66;100.00;100943.84;5094851;28;20020;-75
2022/06/13 10:03:30;;;;;;;11.15;7.93;;;;;;;28.23;100.00;100935.09;5094788;28;20471;-73
2022/06/13 10:06:38;;;;;;;15.40;8.23;;;;;;;28.71;100.00;100938.91;5079531;28;20032;-75
2022/06/13 10:09:48;;;;;;;11.00;8.27;;;;;;;28.84;100.00;100934.09;5094391;28;20032;-73
2022/06/13 10:12:54;;;;;;;13.75;8.60;;;;;;;28.73;100.00;100929.66;5094311;28;20348;-74
2022/06/13 10:16:19;;;;;;;11.20;9.60;;;;;;;28.86;100.00;100927.59;5079244;28;20051;-74
2022/06/13 10:19:04;;;;;;;11.95;8.95;;;;;;;28.88;100.00;100917.50;5014071;28;20026;-74
2022/06/13 10:22:37;;;;;;;11.65;8.93;;;;;;;28.96;100.00;100935.69;5000272;28;20026;-75
2022/06/13 10:25:31;;;;;;;16.10;8.55;;;;;;;28.86;100.00;100926.75;5078037;28;20368;-74
2022/06/13 10:28:24;;;;;;;12.82;8.98;;;;;;;28.93;100.00;100922.50;5093624;28;20020;-75
2022/06/13 10:31:19;;;;;;;10.70;8.57;;;;;;;29.10;100.00;100921.84;5094157;28;20046;-75
2022/06/13 10:34:28;;;;;;;12.27;8.88;;;;;;;28.76;100.00;100913.22;5078994;28;20090;-74
2022/06/13 10:37:25;;;;;;;10.88;9.10;;;;;;;28.82;100.00;100909.13;5079862;28;20031;-75
2022/06/13 10:40:12;;;;;;;10.95;9.10;;;;;;;29.11;100.00;100905.53;5093214;28;20043;-75
2022/06/13 10:42:59;;;;;;;10.73;9.48;;;;;;;29.46;100.00;100911.25;5080893;28;20028;-74
2022/06/13 10:45:48;;;;;;;12.85;9.55;;;;;;;29.68;100.00;100910.97;5093989;28;20027;-75
2022/06/13 10:49:02;;;;;;;10.38;8.63;;;;;;;30.17;100.00;100896.38;5095237;28;20024;-74
2022/06/13 10:51:48;;;;;;;12.05;9.05;;;;;;;30.04;100.00;100895.81;5097815;28;20027;-78
2022/06/13 10:54:42;;;;;;;13.35;10.15;;;;;;;29.27;100.00;100894.16;5098732;28;20032;-74
2022/06/13 10:57:34;;;;;;;12.52;9.40;;;;;;;29.41;100.00;100899.16;5097854;28;20020;-75
2022/06/13 11:00:24;;;;;;;12.68;10.50;;;;;;;29.98;100.00;100891.00;5083109;28;20039;-81
2022/06/13 11:03:10;;;;;;;12.13;10.35;;;;;;;30.21;100.00;100892.38;5083774;28;20028;-73
2022/06/13 11:06:04;;;;;;;18.60;9.55;;;;;;;29.24;100.00;100887.22;5083217;28;20032;-74
2022/06/13 11:09:06;;;;;;;15.15;9.00;;;;;;;29.73;100.00;100883.53;5097703;28;20044;-78
2022/06/13 11:12:01;;;;;;;10.02;8.02;;;;;;;30.12;100.00;100877.00;5097871;28;20134;-77
2022/06/13 11:24:57;;;;;;;8.23;7.13;;;;;;;31.50;88.89;100862.28;5100671;28;20032;-78
2022/06/13 11:28:00;;;;;;;9.20;7.50;;;;;;;31.45;86.29;100860.03;5098483;28;20027;-78
2022/06/13 11:31:11;;;;;;;9.80;7.05;;;;;;;31.20;90.52;100855.38;5096772;28;20329;-74
2022/06/13 11:34:21;;;;;;;8.00;7.07;;;;;;;31.77;84.58;100854.06;5081910;28;20103;-78
2022/06/13 11:37:12;;;;;;;7.78;6.75;;;;;;;31.60;81.63;100849.47;5098040;28;20040;-79
2022/06/13 11:40:00;;;;;;;10.68;7.30;;;;;;;31.46;78.30;100844.66;5096532;28;20024;-75
2022/06/13 11:42:51;;;;;;;7.75;6.70;;;;;;;31.59;79.06;100843.22;5096384;28;20036;-74
2022/06/13 11:45:38;;;;;;;11.57;7.40;;;;;;;32.03;76.44;100844.06;5096454;28;20028;-78
2022/06/13 11:48:26;;;;;;;13.27;8.00;;;;;;;31.80;82.98;100849.16;5082930;28;20028;-77
2022/06/13 11:51:23;;;;;;;12.73;8.23;;;;;;;31.70;84.65;100836.69;5086045;28;20129;-77
2022/06/13 11:54:27;;;;;;;10.30;7.88;;;;;;;31.13;81.01;100829.91;5086963;28;20043;-77
2022/06/13 11:57:13;;;;;;;10.52;7.38;;;;;;;31.96;79.17;100835.72;5098639;28;20062;-76
2022/06/13 12:00:20;;;;;;;9.63;7.13;;;;;;;32.35;71.39;100830.69;5082333;28;20028;-77
2022/06/13 12:03:18;;;;;;;9.50;7.18;;;;;;;31.84;75.28;100830.72;5101960;28;20035;-76
2022/06/13 12:06:17;;;;;;;8.40;6.97;;;;;;;31.73;77.52;100825.56;5086158;28;20020;-77
2022/06/13 12:09:14;;;;;;;8.38;7.50;;;;;;;31.96;80.33;100826.72;5103187;28;20026;-77
2022/06/13 12:12:06;;;;;;;8.23;6.93;;;;;;;31.05;81.58;100822.59;5097875;28;20043;-79
2022/06/13 12:14:52;;;;;;;14.10;6.95;;;;;;;31.51;80.63;100826.06;5096234;28;20044;-77
2022/06/13 12:17:54;;;;;;;8.00;7.20;;;;;;;31.83;77.09;100827.19;5082113;28;20024;-80
2022/06/13 12:20:44;;;;;;;7.28;6.57;;;;;;;31.25;77.19;100817.88;5096106;28;20047;-80
2022/06/13 12:23:41;;;;;;;9.13;6.65;;;;;;;31.11;76.27;100815.72;5096110;28;20056;-80
2022/06/13 12:26:33;;;;;;;9.52;7.15;;;;;;;31.08;77.99;100813.31;5096566;28;20062;-79
2022/06/13 12:29:54;;;;;;;8.38;7.05;;;;;;;31.63;77.96;100811.25;5096171;28;20057;-78
2022/06/13 12:32:46;;;;;;;9.15;6.82;;;;;;;31.55;75.22;100800.34;5015631;28;20069;-80
2022/06/13 12:35:58;;;;;;;9.57;7.05;;;;;;;31.46;72.86;100796.72;5096929;28;20043;-79
2022/06/13 12:39:18;;;;;;;7.78;6.95;;;;;;;32.10;70.17;100780.03;5081827;28;20027;-80
2022/06/13 12:42:06;;;;;;;10.02;6.93;;;;;;;32.43;73.24;100787.31;5081566;28;20099;-81
2022/06/13 12:45:14;;;;;;;8.85;6.82;;;;;;;30.61;81.55;100782.00;5080840;28;20024;-80
2022/06/13 12:48:16;;;;;;;11.25;7.60;;;;;;;31.66;78.02;100786.53;5095768;28;20032;-80
2022/06/13 12:51:20;;;;;;;11.18;7.18;;;;;;;31.88;72.94;100786.88;5096511;28;20032;-81
2022/06/13 12:54:31;;;;;;;9.82;7.05;;;;;;;32.00;75.26;100777.47;5095732;28;20024;-81
2022/06/13 12:57:35;;;;;;;8.00;7.25;;;;;;;31.79;72.84;100779.72;5080677;28;20073;-80
2022/06/13 13:00:38;;;;;;;8.63;6.70;;;;;;;32.16;71.99;100772.09;5081207;28;20456;-80
2022/06/13 13:03:42;;;;;;;11.50;8.13;;;;;;;31.69;74.33;100767.25;5082066;28;20028;-80
2022/06/13 13:06:37;;;;;;;8.95;7.15;;;;;;;32.15;71.93;100762.28;5094953;28;20046;-80
2022/06/13 13:09:48;;;;;;;8.63;7.28;;;;;;;31.65;80.48;100765.88;5094479;28;20043;-80
2022/06/13 13:12:53;;;;;;;12.18;9.43;;;;;;;31.72;86.93;100759.66;5098352;28;20035;-79
2022/06/13 13:16:14;;;;;;;12.65;9.75;;;;;;;31.21;92.68;100755.03;5098556;28;20144;-78
2022/06/13 13:19:15;;;;;;;14.45;9.95;;;;;;;31.48;95.77;100756.78;5099197;28;20361;-77
2022/06/13 13:22:13;;;;;;;12.73;11.13;;;;;;;31.12;96.07;100750.59;5098513;28;20032;-78
2022/06/13 13:25:07;;;;;;;11.05;9.27;;;;;;;31.34;88.88;100752.81;5101456;28;20104;-78
2022/06/13 13:28:05;;;;;;;12.73;9.45;;;;;;;31.42;90.89;100750.16;5098545;28;20028;-78
2022/06/13 13:30:59;;;;;;;11.70;10.00;;;;;;;31.69;93.24;100742.88;5096135;28;20035;-77
2022/06/13 13:34:18;;;;;;;13.02;10.00;;;;;;;31.83;93.26;100737.72;5082125;28;20024;-82
2022/06/13 13:37:09;;;;;;;14.48;9.73;;;;;;;31.63;91.53;100730.81;5081852;28;20028;-78